sensor_id;sensor_type;location;lat;lon;timestamp;P1;durP1;ratioP1;P2;durP2;ratioP2
47129;SDS011;69689;48.122;11.542;2023-09-08T05:03:23;0.00;;;0.00;;
47129;SDS011;69689;48.122;11.542;2023-09-08T05:05:49;0.10;;;0.10;;
47129;SDS011;69689;48.122;11.542;2023-09-08T05:08:15;0.03;;;0.03;;
47129;SDS011;69689;48.122;11.542;2023-09-08T05:10:40;0.00;;;0.00;;
47129;SDS011;69689;48.122;11.542;2023-09-08T05:13:05;0.00;;;0.00;;
47129;SDS011;69689;48.122;11.542;2023-09-08T05:15:31;0.00;;;0.00;;
47129;SDS011;69689;48.122;11.542;2023-09-08T05:17:56;0.00;;;0.00;;
47129;SDS011;69689;48.122;11.542;2023-09-08T05:20:22;0.00;;;0.00;;
47129;SDS011;69689;48.122;11.542;2023-09-08T05:22:47;0.00;;;0.00;;
47129;SDS011;69689;48.122;11.542;2023-09-08T05:25:12;0.00;;;0.00;;
47129;SDS011;69689;48.122;11.542;2023-09-08T05:27:38;0.00;;;0.00;;
47129;SDS011;69689;48.122;11.542;2023-09-08T05:30:03;0.00;;;0.00;;
47129;SDS011;69689;48.122;11.542;2023-09-08T05:32:29;0.00;;;0.00;;
47129;SDS011;69689;48.122;11.542;2023-09-08T05:37:19;0.00;;;0.00;;
47129;SDS011;69689;48.122;11.542;2023-09-08T05:39:45;0.00;;;0.00;;
47129;SDS011;69689;48.122;11.542;2023-09-08T05:42:10;0.00;;;0.00;;
47129;SDS011;69689;48.122;11.542;2023-09-08T05:44:35;0.00;;;0.00;;
47129;SDS011;69689;48.122;11.542;2023-09-08T05:47:01;0.00;;;0.00;;
47129;SDS011;69689;48.122;11.542;2023-09-08T05:51:53;0.00;;;0.00;;
47129;SDS011;69689;48.122;11.542;2023-09-08T05:54:21;0.00;;;0.00;;
47129;SDS011;69689;48.122;11.542;2023-09-08T05:59:12;0.00;;;0.00;;
47129;SDS011;69689;48.122;11.542;2023-09-08T06:04:02;0.00;;;0.00;;
47129;SDS011;69689;48.122;11.542;2023-09-08T06:08:54;0.00;;;0.00;;
47129;SDS011;69689;48.122;11.542;2023-09-08T06:13:44;0.00;;;0.00;;
47129;SDS011;69689;48.122;11.542;2023-09-08T06:18:35;0.00;;;0.00;;
47129;SDS011;69689;48.122;11.542;2023-09-08T06:21:05;0.00;;;0.00;;
47129;SDS011;69689;48.122;11.542;2023-09-08T06:23:34;0.00;;;0.00;;
47129;SDS011;69689;48.122;11.542;2023-09-08T06:25:59;0.00;;;0.00;;
47129;SDS011;69689;48.122;11.542;2023-09-08T06:28:26;0.00;;;0.00;;
47129;SDS011;69689;48.122;11.542;2023-09-08T06:30:52;0.00;;;0.00;;
47129;SDS011;69689;48.122;11.542;2023-09-08T06:33:18;0.00;;;0.00;;
47129;SDS011;69689;48.122;11.542;2023-09-08T06:35:43;0.00;;;0.00;;
47129;SDS011;69689;48.122;11.542;2023-09-08T06:38:09;0.00;;;0.00;;
47129;SDS011;69689;48.122;11.542;2023-09-08T06:40:34;0.00;;;0.00;;
47129;SDS011;69689;48.122;11.542;2023-09-08T06:43:00;0.00;;;0.00;;
47129;SDS011;69689;48.122;11.542;2023-09-08T06:45:25;0.00;;;0.00;;
47129;SDS011;69689;48.122;11.542;2023-09-08T06:47:50;0.00;;;0.00;;
47129;SDS011;69689;48.122;11.542;2023-09-08T06:50:19;0.00;;;0.00;;
47129;SDS011;69689;48.122;11.542;2023-09-08T06:52:45;0.00;;;0.00;;
47129;SDS011;69689;48.122;11.542;2023-09-08T06:55:12;0.00;;;0.00;;
47129;SDS011;69689;48.122;11.542;2023-09-08T06:57:38;0.00;;;0.00;;
47129;SDS011;69689;48.122;11.542;2023-09-08T07:00:07;0.00;;;0.00;;
47129;SDS011;69689;48.122;11.542;2023-09-08T07:02:33;0.00;;;0.00;;
47129;SDS011;69689;48.122;11.542;2023-09-08T07:04:59;0.00;;;0.00;;
47129;SDS011;69689;48.122;11.542;2023-09-08T07:07:25;0.00;;;0.00;;
47129;SDS011;69689;48.122;11.542;2023-09-08T07:09:51;0.00;;;0.00;;
47129;SDS011;69689;48.122;11.542;2023-09-08T07:12:16;0.00;;;0.00;;
47129;SDS011;69689;48.122;11.542;2023-09-08T07:14:42;0.00;;;0.00;;
47129;SDS011;69689;48.122;11.542;2023-09-08T07:17:07;0.00;;;0.00;;
47129;SDS011;69689;48.122;11.542;2023-09-08T07:19:32;0.00;;;0.00;;
47129;SDS011;69689;48.122;11.542;2023-09-08T07:21:59;0.00;;;0.00;;
47129;SDS011;69689;48.122;11.542;2023-09-08T07:24:25;0.00;;;0.00;;
47129;SDS011;69689;48.122;11.542;2023-09-08T07:26:50;0.00;;;0.00;;
47129;SDS011;69689;48.122;11.542;2023-09-08T07:29:16;0.00;;;0.00;;
47129;SDS011;69689;48.122;11.542;2023-09-08T07:31:41;0.00;;;0.00;;
47129;SDS011;69689;48.122;11.542;2023-09-08T07:34:07;0.00;;;0.00;;
47129;SDS011;69689;48.122;11.542;2023-09-08T07:36:33;0.00;;;0.00;;
47129;SDS011;69689;48.122;11.542;2023-09-08T07:39:00;0.00;;;0.00;;
47129;SDS011;69689;48.122;11.542;2023-09-08T07:41:26;0.00;;;0.00;;
47129;SDS011;69689;48.122;11.542;2023-09-08T07:43:51;0.00;;;0.00;;
47129;SDS011;69689;48.122;11.542;2023-09-08T07:46:17;0.00;;;0.00;;
47129;SDS011;69689;48.122;11.542;2023-09-08T07:48:45;0.00;;;0.00;;
47129;SDS011;69689;48.122;11.542;2023-09-08T07:51:11;0.00;;;0.00;;
47129;SDS011;69689;48.122;11.542;2023-09-08T07:53:36;0.00;;;0.00;;
47129;SDS011;69689;48.122;11.542;2023-09-08T07:56:02;0.00;;;0.00;;
47129;SDS011;69689;48.122;11.542;2023-09-08T07:58:32;0.00;;;0.00;;
47129;SDS011;69689;48.122;11.542;2023-09-08T08:00:58;0.10;;;0.10;;
47129;SDS011;69689;48.122;11.542;2023-09-08T08:03:24;0.10;;;0.10;;
47129;SDS011;69689;48.122;11.542;2023-09-08T08:05:49;0.10;;;0.10;;
47129;SDS011;69689;48.122;11.542;2023-09-08T08:08:14;0.00;;;0.00;;
47129;SDS011;69689;48.122;11.542;2023-09-08T08:10:41;0.00;;;0.00;;
47129;SDS011;69689;48.122;11.542;2023-09-08T08:13:06;0.00;;;0.00;;
47129;SDS011;69689;48.122;11.542;2023-09-08T08:15:36;0.00;;;0.00;;
47129;SDS011;69689;48.122;11.542;2023-09-08T08:18:04;0.00;;;0.00;;
47129;SDS011;69689;48.122;11.542;2023-09-08T08:20:30;0.00;;;0.00;;
47129;SDS011;69689;48.122;11.542;2023-09-08T08:23:01;0.00;;;0.00;;
47129;SDS011;69689;48.122;11.542;2023-09-08T08:25:27;0.00;;;0.00;;
47129;SDS011;69689;48.122;11.542;2023-09-08T08:27:56;0.00;;;0.00;;
47129;SDS011;69689;48.122;11.542;2023-09-08T08:30:23;0.00;;;0.00;;
47129;SDS011;69689;48.122;11.542;2023-09-08T08:32:48;0.00;;;0.00;;
47129;SDS011;69689;48.122;11.542;2023-09-08T08:35:16;0.00;;;0.00;;
47129;SDS011;69689;48.122;11.542;2023-09-08T08:37:41;0.00;;;0.00;;
47129;SDS011;69689;48.122;11.542;2023-09-08T08:40:08;0.00;;;0.00;;
47129;SDS011;69689;48.122;11.542;2023-09-08T08:42:40;0.00;;;0.00;;
47129;SDS011;69689;48.122;11.542;2023-09-08T08:45:07;0.10;;;0.00;;
47129;SDS011;69689;48.122;11.542;2023-09-08T08:47:33;0.00;;;0.00;;
47129;SDS011;69689;48.122;11.542;2023-09-08T08:49:59;0.00;;;0.00;;
47129;SDS011;69689;48.122;11.542;2023-09-08T08:52:27;0.00;;;0.00;;
47129;SDS011;69689;48.122;11.542;2023-09-08T08:54:53;0.00;;;0.00;;
47129;SDS011;69689;48.122;11.542;2023-09-08T08:57:19;0.00;;;0.00;;
47129;SDS011;69689;48.122;11.542;2023-09-08T08:59:46;0.00;;;0.00;;
47129;SDS011;69689;48.122;11.542;2023-09-08T09:02:14;0.00;;;0.00;;
47129;SDS011;69689;48.122;11.542;2023-09-08T09:04:43;0.00;;;0.00;;
47129;SDS011;69689;48.122;11.542;2023-09-08T09:07:09;0.00;;;0.00;;
47129;SDS011;69689;48.122;11.542;2023-09-08T09:09:34;0.00;;;0.00;;
47129;SDS011;69689;48.122;11.542;2023-09-08T09:12:00;0.10;;;0.10;;
47129;SDS011;69689;48.122;11.542;2023-09-08T09:14:27;0.30;;;0.30;;
47129;SDS011;69689;48.122;11.542;2023-09-08T09:16:52;0.73;;;0.73;;
47129;SDS011;69689;48.122;11.542;2023-09-08T09:19:21;0.70;;;0.70;;
47129;SDS011;69689;48.122;11.542;2023-09-08T09:21:52;1.52;;;1.52;;
47129;SDS011;69689;48.122;11.542;2023-09-08T09:24:55;3.17;;;3.17;;
47129;SDS011;69689;48.122;11.542;2023-09-08T09:27:14;7.13;;;6.93;;
47129;SDS011;69689;48.122;11.542;2023-09-08T09:29:46;9.25;;;9.05;;
47129;SDS011;69689;48.122;11.542;2023-09-08T09:32:12;13.85;;;13.45;;
47129;SDS011;69689;48.122;11.542;2023-09-08T09:34:47;26.67;;;25.90;;
47129;SDS011;69689;48.122;11.542;2023-09-08T09:37:18;36.28;;;35.20;;
47129;SDS011;69689;48.122;11.542;2023-09-08T09:39:48;33.85;;;32.85;;
47129;SDS011;69689;48.122;11.542;2023-09-08T09:42:14;41.90;;;40.67;;
47129;SDS011;69689;48.122;11.542;2023-09-08T09:44:39;57.97;;;56.28;;
47129;SDS011;69689;48.122;11.542;2023-09-08T09:47:05;70.63;;;68.63;;
47129;SDS011;69689;48.122;11.542;2023-09-08T09:49:32;81.35;;;79.05;;
47129;SDS011;69689;48.122;11.542;2023-09-08T09:51:57;96.72;;;94.10;;
47129;SDS011;69689;48.122;11.542;2023-09-08T09:54:23;121.75;;;118.47;;
47129;SDS011;69689;48.122;11.542;2023-09-08T09:56:49;127.20;;;123.82;;
47129;SDS011;69689;48.122;11.542;2023-09-08T09:59:17;159.88;;;155.80;;
47129;SDS011;69689;48.122;11.542;2023-09-08T10:01:43;165.95;;;161.70;;
47129;SDS011;69689;48.122;11.542;2023-09-08T10:04:12;197.95;;;193.05;;
47129;SDS011;69689;48.122;11.542;2023-09-08T10:06:38;247.20;;;241.35;;
47129;SDS011;69689;48.122;11.542;2023-09-08T10:09:05;248.70;;;242.75;;
47129;SDS011;69689;48.122;11.542;2023-09-08T10:11:42;292.25;;;285.48;;
47129;SDS011;69689;48.122;11.542;2023-09-08T10:14:10;331.23;;;323.80;;
47129;SDS011;69689;48.122;11.542;2023-09-08T10:16:36;345.27;;;337.55;;
47129;SDS011;69689;48.122;11.542;2023-09-08T10:19:04;364.08;;;356.05;;
47129;SDS011;69689;48.122;11.542;2023-09-08T10:21:33;396.65;;;388.00;;
47129;SDS011;69689;48.122;11.542;2023-09-08T10:27:04;402.88;;;393.98;;
47129;SDS011;69689;48.122;11.542;2023-09-08T10:29:33;480.17;;;470.13;;
47129;SDS011;69689;48.122;11.542;2023-09-08T10:31:59;473.15;;;463.10;;
47129;SDS011;69689;48.122;11.542;2023-09-08T10:34:25;475.17;;;464.98;;
47129;SDS011;69689;48.122;11.542;2023-09-08T10:36:51;492.60;;;482.15;;
47129;SDS011;69689;48.122;11.542;2023-09-08T10:39:27;501.58;;;490.98;;
47129;SDS011;69689;48.122;11.542;2023-09-08T10:42:19;520.08;;;509.13;;
47129;SDS011;69689;48.122;11.542;2023-09-08T10:47:22;564.47;;;552.67;;
47129;SDS011;69689;48.122;11.542;2023-09-08T10:49:48;552.35;;;540.65;;
47129;SDS011;69689;48.122;11.542;2023-09-08T10:52:18;569.83;;;557.80;;
47129;SDS011;69689;48.122;11.542;2023-09-08T10:54:53;593.88;;;581.53;;
47129;SDS011;69689;48.122;11.542;2023-09-08T10:57:23;567.53;;;555.50;;
47129;SDS011;69689;48.122;11.542;2023-09-08T10:59:56;614.70;;;602.00;;
47129;SDS011;69689;48.122;11.542;2023-09-08T11:02:36;607.85;;;595.13;;
47129;SDS011;69689;48.122;11.542;2023-09-08T11:05:02;666.78;;;652.97;;
47129;SDS011;69689;48.122;11.542;2023-09-08T11:07:30;708.72;;;694.20;;
47129;SDS011;69689;48.122;11.542;2023-09-08T11:09:57;736.47;;;721.33;;
47129;SDS011;69689;48.122;11.542;2023-09-08T11:12:26;682.63;;;668.28;;
47129;SDS011;69689;48.122;11.542;2023-09-08T11:14:52;705.53;;;690.85;;
47129;SDS011;69689;48.122;11.542;2023-09-08T11:17:17;698.92;;;684.40;;
47129;SDS011;69689;48.122;11.542;2023-09-08T11:19:45;677.58;;;663.30;;
47129;SDS011;69689;48.122;11.542;2023-09-08T11:22:12;719.25;;;704.17;;
47129;SDS011;69689;48.122;11.542;2023-09-08T11:24:38;708.10;;;693.22;;
47129;SDS011;69689;48.122;11.542;2023-09-08T11:27:04;747.80;;;732.25;;
47129;SDS011;69689;48.122;11.542;2023-09-08T11:29:33;764.50;;;748.50;;
47129;SDS011;69689;48.122;11.542;2023-09-08T11:31:59;740.03;;;724.30;;
47129;SDS011;69689;48.122;11.542;2023-09-08T11:34:26;754.28;;;738.17;;
47129;SDS011;69689;48.122;11.542;2023-09-08T11:36:52;774.40;;;758.10;;
47129;SDS011;69689;48.122;11.542;2023-09-08T11:39:18;723.80;;;708.45;;
47129;SDS011;69689;48.122;11.542;2023-09-08T11:41:44;740.75;;;725.13;;
47129;SDS011;69689;48.122;11.542;2023-09-08T11:44:09;768.83;;;752.67;;
47129;SDS011;69689;48.122;11.542;2023-09-08T11:46:34;741.83;;;726.17;;
47129;SDS011;69689;48.122;11.542;2023-09-08T11:49:00;697.85;;;683.08;;
47129;SDS011;69689;48.122;11.542;2023-09-08T11:51:27;696.42;;;681.65;;
47129;SDS011;69689;48.122;11.542;2023-09-08T11:53:52;742.42;;;726.80;;
47129;SDS011;69689;48.122;11.542;2023-09-08T11:56:18;750.60;;;734.67;;
47129;SDS011;69689;48.122;11.542;2023-09-08T11:58:43;743.23;;;727.37;;
47129;SDS011;69689;48.122;11.542;2023-09-08T12:01:09;788.92;;;772.28;;
47129;SDS011;69689;48.122;11.542;2023-09-08T12:03:35;759.35;;;743.13;;
47129;SDS011;69689;48.122;11.542;2023-09-08T12:06:16;759.05;;;742.65;;
47129;SDS011;69689;48.122;11.542;2023-09-08T12:08:41;770.40;;;753.63;;
47129;SDS011;69689;48.122;11.542;2023-09-08T12:11:09;816.70;;;799.03;;
47129;SDS011;69689;48.122;11.542;2023-09-08T12:13:35;786.28;;;769.30;;
47129;SDS011;69689;48.122;11.542;2023-09-08T12:16:00;765.15;;;748.58;;
47129;SDS011;69689;48.122;11.542;2023-09-08T12:18:38;762.00;;;745.45;;
47129;SDS011;69689;48.122;11.542;2023-09-08T12:21:04;776.50;;;759.65;;
47129;SDS011;69689;48.122;11.542;2023-09-08T12:23:30;757.00;;;740.42;;
47129;SDS011;69689;48.122;11.542;2023-09-08T12:25:56;744.37;;;728.03;;
47129;SDS011;69689;48.122;11.542;2023-09-08T12:28:22;775.28;;;758.38;;
47129;SDS011;69689;48.122;11.542;2023-09-08T12:30:51;784.85;;;767.78;;
47129;SDS011;69689;48.122;11.542;2023-09-08T12:33:18;790.72;;;773.55;;
47129;SDS011;69689;48.122;11.542;2023-09-08T12:35:45;753.78;;;737.28;;
47129;SDS011;69689;48.122;11.542;2023-09-08T12:38:11;777.47;;;760.58;;
47129;SDS011;69689;48.122;11.542;2023-09-08T12:40:38;798.92;;;781.55;;
47129;SDS011;69689;48.122;11.542;2023-09-08T12:43:04;754.78;;;738.25;;
47129;SDS011;69689;48.122;11.542;2023-09-08T12:45:30;746.42;;;730.10;;
47129;SDS011;69689;48.122;11.542;2023-09-08T12:48:02;758.47;;;741.92;;
47129;SDS011;69689;48.122;11.542;2023-09-08T12:50:28;751.47;;;735.10;;
47129;SDS011;69689;48.122;11.542;2023-09-08T12:52:55;746.88;;;730.55;;
47129;SDS011;69689;48.122;11.542;2023-09-08T12:55:22;746.78;;;730.53;;
47129;SDS011;69689;48.122;11.542;2023-09-08T12:57:47;755.28;;;738.83;;
47129;SDS011;69689;48.122;11.542;2023-09-08T13:00:13;773.45;;;756.67;;
47129;SDS011;69689;48.122;11.542;2023-09-08T13:02:39;782.30;;;765.42;;
47129;SDS011;69689;48.122;11.542;2023-09-08T13:05:05;787.97;;;770.92;;
47129;SDS011;69689;48.122;11.542;2023-09-08T13:07:31;774.88;;;758.10;;
47129;SDS011;69689;48.122;11.542;2023-09-08T13:09:56;807.40;;;790.00;;
47129;SDS011;69689;48.122;11.542;2023-09-08T13:12:21;777.60;;;760.73;;
47129;SDS011;69689;48.122;11.542;2023-09-08T13:14:46;752.63;;;736.33;;
47129;SDS011;69689;48.122;11.542;2023-09-08T13:17:12;750.35;;;734.17;;
47129;SDS011;69689;48.122;11.542;2023-09-08T13:19:38;767.05;;;750.60;;
47129;SDS011;69689;48.122;11.542;2023-09-08T13:22:04;731.67;;;715.88;;
47129;SDS011;69689;48.122;11.542;2023-09-08T13:24:30;718.03;;;702.42;;
47129;SDS011;69689;48.122;11.542;2023-09-08T13:26:56;753.53;;;737.35;;
47129;SDS011;69689;48.122;11.542;2023-09-08T13:29:21;776.65;;;760.10;;
47129;SDS011;69689;48.122;11.542;2023-09-08T13:31:46;784.70;;;768.03;;
47129;SDS011;69689;48.122;11.542;2023-09-08T13:34:13;759.85;;;743.55;;
47129;SDS011;69689;48.122;11.542;2023-09-08T13:36:38;723.33;;;707.70;;
47129;SDS011;69689;48.122;11.542;2023-09-08T13:39:04;707.33;;;692.05;;
47129;SDS011;69689;48.122;11.542;2023-09-08T13:44:16;703.83;;;688.72;;
47129;SDS011;69689;48.122;11.542;2023-09-08T13:46:42;739.22;;;723.63;;
47129;SDS011;69689;48.122;11.542;2023-09-08T13:49:08;730.45;;;715.08;;
47129;SDS011;69689;48.122;11.542;2023-09-08T13:51:33;682.67;;;668.22;;
47129;SDS011;69689;48.122;11.542;2023-09-08T13:53:59;698.15;;;683.42;;
47129;SDS011;69689;48.122;11.542;2023-09-08T13:56:24;703.88;;;689.00;;
47129;SDS011;69689;48.122;11.542;2023-09-08T13:58:49;739.87;;;724.43;;
47129;SDS011;69689;48.122;11.542;2023-09-08T14:01:15;757.15;;;741.45;;
47129;SDS011;69689;48.122;11.542;2023-09-08T14:03:40;695.13;;;680.50;;
47129;SDS011;69689;48.122;11.542;2023-09-08T14:06:05;675.43;;;661.17;;
47129;SDS011;69689;48.122;11.542;2023-09-08T14:08:31;694.30;;;679.70;;
47129;SDS011;69689;48.122;11.542;2023-09-08T14:10:56;723.17;;;708.17;;
47129;SDS011;69689;48.122;11.542;2023-09-08T14:13:22;649.45;;;635.65;;
47129;SDS011;69689;48.122;11.542;2023-09-08T14:15:47;663.50;;;649.53;;
47129;SDS011;69689;48.122;11.542;2023-09-08T14:18:12;653.42;;;639.65;;
47129;SDS011;69689;48.122;11.542;2023-09-08T14:20:39;685.55;;;671.40;;
47129;SDS011;69689;48.122;11.542;2023-09-08T14:23:05;638.00;;;624.60;;
47129;SDS011;69689;48.122;11.542;2023-09-08T14:25:32;600.20;;;587.55;;
47129;SDS011;69689;48.122;11.542;2023-09-08T14:27:58;576.35;;;564.22;;
47129;SDS011;69689;48.122;11.542;2023-09-08T14:30:23;507.13;;;496.20;;
47129;SDS011;69689;48.122;11.542;2023-09-08T14:32:48;501.65;;;490.85;;
47129;SDS011;69689;48.122;11.542;2023-09-08T14:35:14;517.20;;;506.20;;
47129;SDS011;69689;48.122;11.542;2023-09-08T14:37:39;513.58;;;502.67;;
47129;SDS011;69689;48.122;11.542;2023-09-08T14:40:05;484.45;;;473.95;;
47129;SDS011;69689;48.122;11.542;2023-09-08T14:42:31;518.05;;;507.08;;
47129;SDS011;69689;48.122;11.542;2023-09-08T14:44:56;508.08;;;497.27;;
47129;SDS011;69689;48.122;11.542;2023-09-08T14:47:22;536.55;;;525.42;;
47129;SDS011;69689;48.122;11.542;2023-09-08T14:49:47;479.10;;;468.80;;
47129;SDS011;69689;48.122;11.542;2023-09-08T14:52:12;527.20;;;516.20;;
47129;SDS011;69689;48.122;11.542;2023-09-08T14:54:38;497.20;;;486.67;;
47129;SDS011;69689;48.122;11.542;2023-09-08T14:57:03;489.57;;;479.27;;
47129;SDS011;69689;48.122;11.542;2023-09-08T14:59:29;449.48;;;439.80;;
47129;SDS011;69689;48.122;11.542;2023-09-08T15:01:54;414.97;;;405.83;;
47129;SDS011;69689;48.122;11.542;2023-09-08T15:04:21;474.65;;;464.65;;
47129;SDS011;69689;48.122;11.542;2023-09-08T15:06:46;460.23;;;450.45;;
47129;SDS011;69689;48.122;11.542;2023-09-08T15:09:12;424.45;;;415.27;;
47129;SDS011;69689;48.122;11.542;2023-09-08T15:11:37;412.00;;;403.00;;
47129;SDS011;69689;48.122;11.542;2023-09-08T15:14:03;415.98;;;407.02;;
47129;SDS011;69689;48.122;11.542;2023-09-08T15:16:29;348.17;;;340.25;;
47129;SDS011;69689;48.122;11.542;2023-09-08T15:18:54;390.88;;;382.45;;
47129;SDS011;69689;48.122;11.542;2023-09-08T15:21:19;317.63;;;310.25;;
47129;SDS011;69689;48.122;11.542;2023-09-08T15:23:50;326.40;;;319.05;;
47129;SDS011;69689;48.122;11.542;2023-09-08T15:26:16;304.17;;;297.13;;
47129;SDS011;69689;48.122;11.542;2023-09-08T15:28:42;317.60;;;310.35;;
47129;SDS011;69689;48.122;11.542;2023-09-08T15:31:07;280.17;;;273.63;;
47129;SDS011;69689;48.122;11.542;2023-09-08T15:33:33;243.85;;;238.00;;
47129;SDS011;69689;48.122;11.542;2023-09-08T15:36:00;246.30;;;240.40;;
47129;SDS011;69689;48.122;11.542;2023-09-08T15:38:25;216.57;;;211.30;;
47129;SDS011;69689;48.122;11.542;2023-09-08T15:43:51;215.90;;;210.68;;
47129;SDS011;69689;48.122;11.542;2023-09-08T15:46:18;161.43;;;157.25;;
47129;SDS011;69689;48.122;11.542;2023-09-08T15:48:44;145.48;;;141.68;;
47129;SDS011;69689;48.122;11.542;2023-09-08T15:51:09;127.35;;;123.95;;
47129;SDS011;69689;48.122;11.542;2023-09-08T15:53:35;106.07;;;103.15;;
47129;SDS011;69689;48.122;11.542;2023-09-08T15:56:01;99.40;;;96.63;;
47129;SDS011;69689;48.122;11.542;2023-09-08T15:58:28;80.22;;;77.95;;
47129;SDS011;69689;48.122;11.542;2023-09-08T16:00:54;91.55;;;89.00;;
47129;SDS011;69689;48.122;11.542;2023-09-08T16:03:20;73.60;;;71.53;;
47129;SDS011;69689;48.122;11.542;2023-09-08T16:05:46;73.38;;;71.28;;
47129;SDS011;69689;48.122;11.542;2023-09-08T16:08:11;68.70;;;66.80;;
47129;SDS011;69689;48.122;11.542;2023-09-08T16:10:37;55.17;;;53.58;;
47129;SDS011;69689;48.122;11.542;2023-09-08T16:13:02;57.85;;;56.20;;
47129;SDS011;69689;48.122;11.542;2023-09-08T16:15:27;56.92;;;55.30;;
47129;SDS011;69689;48.122;11.542;2023-09-08T16:17:53;41.75;;;40.55;;
47129;SDS011;69689;48.122;11.542;2023-09-08T16:20:18;33.97;;;32.97;;
47129;SDS011;69689;48.122;11.542;2023-09-08T16:22:44;36.45;;;35.40;;
47129;SDS011;69689;48.122;11.542;2023-09-08T16:25:10;26.42;;;25.65;;
47129;SDS011;69689;48.122;11.542;2023-09-08T16:27:35;21.77;;;21.17;;
47129;SDS011;69689;48.122;11.542;2023-09-08T16:30:01;22.80;;;22.13;;
47129;SDS011;69689;48.122;11.542;2023-09-08T16:32:26;30.95;;;30.05;;
47129;SDS011;69689;48.122;11.542;2023-09-08T16:34:52;14.93;;;14.52;;
47129;SDS011;69689;48.122;11.542;2023-09-08T16:37:18;7.35;;;7.15;;
47129;SDS011;69689;48.122;11.542;2023-09-08T16:39:43;1.42;;;1.42;;
47129;SDS011;69689;48.122;11.542;2023-09-08T16:42:11;0.40;;;0.40;;
47129;SDS011;69689;48.122;11.542;2023-09-08T16:44:37;0.30;;;0.30;;
47129;SDS011;69689;48.122;11.542;2023-09-08T16:47:02;0.10;;;0.10;;
47129;SDS011;69689;48.122;11.542;2023-09-08T16:49:28;0.10;;;0.10;;
47129;SDS011;69689;48.122;11.542;2023-09-08T16:51:53;0.00;;;0.00;;
47129;SDS011;69689;48.122;11.542;2023-09-08T16:54:19;0.00;;;0.00;;
47129;SDS011;69689;48.122;11.542;2023-09-08T16:56:44;0.00;;;0.00;;
47129;SDS011;69689;48.122;11.542;2023-09-08T16:59:10;0.00;;;0.00;;
47129;SDS011;69689;48.122;11.542;2023-09-08T17:01:35;0.00;;;0.00;;
47129;SDS011;69689;48.122;11.542;2023-09-08T17:04:01;0.00;;;0.00;;
47129;SDS011;69689;48.122;11.542;2023-09-08T17:06:26;0.00;;;0.00;;
47129;SDS011;69689;48.122;11.542;2023-09-08T17:08:52;0.00;;;0.00;;
47129;SDS011;69689;48.122;11.542;2023-09-08T17:11:17;0.00;;;0.00;;
47129;SDS011;69689;48.122;11.542;2023-09-08T17:13:43;0.00;;;0.00;;
47129;SDS011;69689;48.122;11.542;2023-09-08T17:16:09;0.00;;;0.00;;
47129;SDS011;69689;48.122;11.542;2023-09-08T17:18:34;0.00;;;0.00;;
47129;SDS011;69689;48.122;11.542;2023-09-08T17:21:00;0.00;;;0.00;;
47129;SDS011;69689;48.122;11.542;2023-09-08T17:23:26;0.00;;;0.00;;
47129;SDS011;69689;48.122;11.542;2023-09-08T17:25:52;0.00;;;0.00;;
47129;SDS011;69689;48.122;11.542;2023-09-08T17:28:17;0.00;;;0.00;;
47129;SDS011;69689;48.122;11.542;2023-09-08T17:30:43;0.00;;;0.00;;
47129;SDS011;69689;48.122;11.542;2023-09-08T17:33:09;0.00;;;0.00;;
47129;SDS011;69689;48.122;11.542;2023-09-08T17:35:35;0.00;;;0.00;;
47129;SDS011;69689;48.122;11.542;2023-09-08T17:38:01;0.00;;;0.00;;
47129;SDS011;69689;48.122;11.542;2023-09-08T17:40:27;0.00;;;0.00;;
47129;SDS011;69689;48.122;11.542;2023-09-08T17:42:52;0.00;;;0.00;;
47129;SDS011;69689;48.122;11.542;2023-09-08T17:45:17;0.00;;;0.00;;
47129;SDS011;69689;48.122;11.542;2023-09-08T17:47:43;0.00;;;0.00;;
47129;SDS011;69689;48.122;11.542;2023-09-08T17:50:10;0.00;;;0.00;;
47129;SDS011;69689;48.122;11.542;2023-09-08T17:52:35;0.00;;;0.00;;
47129;SDS011;69689;48.122;11.542;2023-09-08T17:55:01;0.00;;;0.00;;
47129;SDS011;69689;48.122;11.542;2023-09-08T17:57:28;0.00;;;0.00;;
47129;SDS011;69689;48.122;11.542;2023-09-08T17:59:54;0.00;;;0.00;;
47129;SDS011;69689;48.122;11.542;2023-09-08T18:02:20;0.00;;;0.00;;
47129;SDS011;69689;48.122;11.542;2023-09-08T18:04:46;0.00;;;0.00;;
47129;SDS011;69689;48.122;11.542;2023-09-08T18:07:11;0.00;;;0.00;;
47129;SDS011;69689;48.122;11.542;2023-09-08T18:09:37;0.00;;;0.00;;
47129;SDS011;69689;48.122;11.542;2023-09-08T18:12:02;0.00;;;0.00;;
47129;SDS011;69689;48.122;11.542;2023-09-08T18:14:28;0.00;;;0.00;;
47129;SDS011;69689;48.122;11.542;2023-09-08T18:16:53;0.00;;;0.00;;
47129;SDS011;69689;48.122;11.542;2023-09-08T18:19:19;0.00;;;0.00;;
47129;SDS011;69689;48.122;11.542;2023-09-08T18:21:44;0.00;;;0.00;;
47129;SDS011;69689;48.122;11.542;2023-09-08T18:24:09;0.00;;;0.00;;
47129;SDS011;69689;48.122;11.542;2023-09-08T18:26:36;0.00;;;0.00;;
47129;SDS011;69689;48.122;11.542;2023-09-08T18:29:03;0.00;;;0.00;;
47129;SDS011;69689;48.122;11.542;2023-09-08T18:31:28;0.00;;;0.00;;
47129;SDS011;69689;48.122;11.542;2023-09-08T18:33:57;0.00;;;0.00;;
47129;SDS011;69689;48.122;11.542;2023-09-08T18:36:23;0.00;;;0.00;;
47129;SDS011;69689;48.122;11.542;2023-09-08T18:38:48;0.00;;;0.00;;
47129;SDS011;69689;48.122;11.542;2023-09-08T18:41:14;0.00;;;0.00;;
47129;SDS011;69689;48.122;11.542;2023-09-08T18:43:42;0.00;;;0.00;;
47129;SDS011;69689;48.122;11.542;2023-09-08T18:46:09;0.00;;;0.00;;
47129;SDS011;69689;48.122;11.542;2023-09-08T18:48:34;0.00;;;0.00;;
47129;SDS011;69689;48.122;11.542;2023-09-08T18:51:01;0.00;;;0.00;;
47129;SDS011;69689;48.122;11.542;2023-09-08T18:53:26;0.00;;;0.00;;
47129;SDS011;69689;48.122;11.542;2023-09-08T18:55:52;0.00;;;0.00;;
47129;SDS011;69689;48.122;11.542;2023-09-08T18:58:18;0.00;;;0.00;;
47129;SDS011;69689;48.122;11.542;2023-09-08T19:00:43;0.00;;;0.00;;
